sensor_id;sensor_type;location;lat;lon;timestamp;temperature;humidity
38604;DHT22;24924;50.054;8.790;2022-08-01T12:13:14;28.70;99.00
38604;DHT22;24924;50.054;8.790;2022-08-01T12:18:07;29.20;94.20
38604;DHT22;24924;50.054;8.790;2022-08-01T12:20:41;29.60;96.50
38604;DHT22;24924;50.054;8.790;2022-08-01T12:23:09;31.20;93.60
38604;DHT22;24924;50.054;8.790;2022-08-01T12:25:37;29.80;95.70
38604;DHT22;24924;50.054;8.790;2022-08-01T12:28:08;29.10;93.40
38604;DHT22;24924;50.054;8.790;2022-08-01T12:30:35;29.80;92.80
38604;DHT22;24924;50.054;8.790;2022-08-01T12:33:03;30.40;95.50
38604;DHT22;24924;50.054;8.790;2022-08-01T12:35:30;30.40;94.90
38604;DHT22;24924;50.054;8.790;2022-08-01T12:38:01;29.20;95.30
38604;DHT22;24924;50.054;8.790;2022-08-01T12:40:33;29.80;95.90
38604;DHT22;24924;50.054;8.790;2022-08-01T12:43:04;29.40;95.40
38604;DHT22;24924;50.054;8.790;2022-08-01T12:48:12;29.70;94.90
38604;DHT22;24924;50.054;8.790;2022-08-01T12:50:41;29.70;92.10
38604;DHT22;24924;50.054;8.790;2022-08-01T12:53:08;29.80;93.50
38604;DHT22;24924;50.054;8.790;2022-08-01T12:55:44;29.70;94.00
38604;DHT22;24924;50.054;8.790;2022-08-01T12:58:12;30.30;95.50
38604;DHT22;24924;50.054;8.790;2022-08-01T13:00:39;30.10;92.70
38604;DHT22;24924;50.054;8.790;2022-08-01T13:03:15;29.70;91.40
38604;DHT22;24924;50.054;8.790;2022-08-01T13:05:49;29.80;92.80
38604;DHT22;24924;50.054;8.790;2022-08-01T13:08:18;29.10;92.90
38604;DHT22;24924;50.054;8.790;2022-08-01T13:10:45;30.10;94.30
38604;DHT22;24924;50.054;8.790;2022-08-01T13:13:13;28.70;92.40
38604;DHT22;24924;50.054;8.790;2022-08-01T13:15:40;28.40;93.80
38604;DHT22;24924;50.054;8.790;2022-08-01T13:18:31;29.10;94.10
38604;DHT22;24924;50.054;8.790;2022-08-01T13:21:21;28.60;91.70
38604;DHT22;24924;50.054;8.790;2022-08-01T13:24:07;28.40;91.90
38604;DHT22;24924;50.054;8.790;2022-08-01T13:26:54;28.30;92.50
38604;DHT22;24924;50.054;8.790;2022-08-01T13:29:35;27.70;91.90
38604;DHT22;24924;50.054;8.790;2022-08-01T13:32:19;27.90;92.20
38604;DHT22;24924;50.054;8.790;2022-08-01T13:34:45;28.30;94.80
38604;DHT22;24924;50.054;8.790;2022-08-01T13:42:09;28.60;94.40
38604;DHT22;24924;50.054;8.790;2022-08-01T13:44:36;28.30;94.50
38604;DHT22;24924;50.054;8.790;2022-08-01T13:47:02;28.50;93.20
38604;DHT22;24924;50.054;8.790;2022-08-01T13:49:29;28.50;93.30
38604;DHT22;24924;50.054;8.790;2022-08-01T13:51:55;29.80;93.90
38604;DHT22;24924;50.054;8.790;2022-08-01T13:54:21;29.50;93.50
38604;DHT22;24924;50.054;8.790;2022-08-01T13:59:13;29.50;93.10
38604;DHT22;24924;50.054;8.790;2022-08-01T14:04:06;28.70;91.60
38604;DHT22;24924;50.054;8.790;2022-08-01T14:06:32;29.10;93.70
38604;DHT22;24924;50.054;8.790;2022-08-01T14:08:58;29.50;93.60
38604;DHT22;24924;50.054;8.790;2022-08-01T14:16:17;26.70;93.40
38604;DHT22;24924;50.054;8.790;2022-08-01T14:18:42;28.50;94.60
38604;DHT22;24924;50.054;8.790;2022-08-01T14:21:08;29.40;94.60
38604;DHT22;24924;50.054;8.790;2022-08-01T14:26:00;27.10;92.60
38604;DHT22;24924;50.054;8.790;2022-08-01T14:28:26;29.00;94.60
38604;DHT22;24924;50.054;8.790;2022-08-01T14:33:21;29.00;94.80
38604;DHT22;24924;50.054;8.790;2022-08-01T14:35:47;29.00;94.70
38604;DHT22;24924;50.054;8.790;2022-08-01T14:38:13;29.00;94.10
38604;DHT22;24924;50.054;8.790;2022-08-01T14:40:39;28.60;93.40
38604;DHT22;24924;50.054;8.790;2022-08-01T14:43:06;27.80;93.80
38604;DHT22;24924;50.054;8.790;2022-08-01T14:45:32;29.00;93.50
38604;DHT22;24924;50.054;8.790;2022-08-01T14:50:25;28.90;94.40
38604;DHT22;24924;50.054;8.790;2022-08-01T14:52:53;29.10;95.90
38604;DHT22;24924;50.054;8.790;2022-08-01T15:05:09;29.20;93.20
38604;DHT22;24924;50.054;8.790;2022-08-01T15:07:36;30.30;93.40
38604;DHT22;24924;50.054;8.790;2022-08-01T15:10:04;31.50;92.50
38604;DHT22;24924;50.054;8.790;2022-08-01T15:12:30;32.00;90.90
38604;DHT22;24924;50.054;8.790;2022-08-01T15:14:56;31.60;90.00
38604;DHT22;24924;50.054;8.790;2022-08-01T15:17:29;32.10;86.90
38604;DHT22;24924;50.054;8.790;2022-08-01T15:19:58;33.30;89.00
38604;DHT22;24924;50.054;8.790;2022-08-01T15:22:25;32.80;86.20
38604;DHT22;24924;50.054;8.790;2022-08-01T15:24:52;30.60;86.80
38604;DHT22;24924;50.054;8.790;2022-08-01T15:27:19;32.00;89.00
38604;DHT22;24924;50.054;8.790;2022-08-01T15:29:45;33.40;89.50
38604;DHT22;24924;50.054;8.790;2022-08-01T15:32:12;31.90;86.00
38604;DHT22;24924;50.054;8.790;2022-08-01T15:37:05;32.20;87.60
38604;DHT22;24924;50.054;8.790;2022-08-01T15:39:33;29.30;86.60
38604;DHT22;24924;50.054;8.790;2022-08-01T15:42:00;29.70;89.80
38604;DHT22;24924;50.054;8.790;2022-08-01T15:44:27;28.00;88.00
38604;DHT22;24924;50.054;8.790;2022-08-01T15:46:53;32.00;90.50
38604;DHT22;24924;50.054;8.790;2022-08-01T15:49:19;31.00;90.90
38604;DHT22;24924;50.054;8.790;2022-08-01T15:51:49;29.80;88.80
38604;DHT22;24924;50.054;8.790;2022-08-01T15:59:08;30.00;90.80
38604;DHT22;24924;50.054;8.790;2022-08-01T16:01:34;30.00;91.10
38604;DHT22;24924;50.054;8.790;2022-08-01T16:04:00;30.90;91.50
38604;DHT22;24924;50.054;8.790;2022-08-01T16:06:26;30.70;90.60
38604;DHT22;24924;50.054;8.790;2022-08-01T16:08:52;30.30;90.90
38604;DHT22;24924;50.054;8.790;2022-08-01T16:11:19;30.20;90.90
38604;DHT22;24924;50.054;8.790;2022-08-01T16:18:41;30.10;92.60
38604;DHT22;24924;50.054;8.790;2022-08-01T16:21:07;29.60;92.40
38604;DHT22;24924;50.054;8.790;2022-08-01T16:23:40;28.50;89.90
38604;DHT22;24924;50.054;8.790;2022-08-01T16:26:06;28.10;90.40
38604;DHT22;24924;50.054;8.790;2022-08-01T16:28:33;29.70;92.20
38604;DHT22;24924;50.054;8.790;2022-08-01T16:30:59;28.80;92.10
38604;DHT22;24924;50.054;8.790;2022-08-01T16:33:25;29.00;92.10
38604;DHT22;24924;50.054;8.790;2022-08-01T16:38:18;28.60;94.70
38604;DHT22;24924;50.054;8.790;2022-08-01T16:40:46;28.10;95.30
38604;DHT22;24924;50.054;8.790;2022-08-01T16:43:16;27.80;95.70
38604;DHT22;24924;50.054;8.790;2022-08-01T16:45:43;27.10;93.80
38604;DHT22;24924;50.054;8.790;2022-08-01T16:48:10;27.10;96.20
38604;DHT22;24924;50.054;8.790;2022-08-01T16:50:36;27.10;97.10
38604;DHT22;24924;50.054;8.790;2022-08-01T16:53:02;27.10;98.30
38604;DHT22;24924;50.054;8.790;2022-08-01T16:55:29;27.10;98.30
38604;DHT22;24924;50.054;8.790;2022-08-01T16:57:55;25.80;98.70
38604;DHT22;24924;50.054;8.790;2022-08-01T17:02:51;24.90;98.60
38604;DHT22;24924;50.054;8.790;2022-08-01T17:05:17;27.20;98.70
38604;DHT22;24924;50.054;8.790;2022-08-01T17:07:45;26.70;98.20
38604;DHT22;24924;50.054;8.790;2022-08-01T17:10:12;26.60;95.50
38604;DHT22;24924;50.054;8.790;2022-08-01T17:19:58;27.40;98.40
38604;DHT22;24924;50.054;8.790;2022-08-01T17:27:18;26.40;96.10
38604;DHT22;24924;50.054;8.790;2022-08-01T17:32:11;26.20;95.70
38604;DHT22;24924;50.054;8.790;2022-08-01T17:34:38;27.10;98.20
38604;DHT22;24924;50.054;8.790;2022-08-01T17:49:18;27.40;98.40
38604;DHT22;24924;50.054;8.790;2022-08-01T17:59:03;25.50;95.50
38604;DHT22;24924;50.054;8.790;2022-08-01T18:06:24;27.60;98.90
38604;DHT22;24924;50.054;8.790;2022-08-01T18:08:50;27.30;95.90
38604;DHT22;24924;50.054;8.790;2022-08-01T18:11:16;27.00;97.30
38604;DHT22;24924;50.054;8.790;2022-08-01T18:16:09;27.10;95.90
38604;DHT22;24924;50.054;8.790;2022-08-01T18:18:37;27.10;98.10
38604;DHT22;24924;50.054;8.790;2022-08-01T18:21:04;24.30;97.10
38604;DHT22;24924;50.054;8.790;2022-08-01T18:23:31;27.00;95.30
38604;DHT22;24924;50.054;8.790;2022-08-01T18:25:58;25.30;95.60
38604;DHT22;24924;50.054;8.790;2022-08-01T18:28:29;25.90;95.30
38604;DHT22;24924;50.054;8.790;2022-08-01T18:30:55;25.90;98.70
38604;DHT22;24924;50.054;8.790;2022-08-01T18:38:14;23.70;98.00
38604;DHT22;24924;50.054;8.790;2022-08-01T18:55:19;25.30;99.90
38604;DHT22;24924;50.054;8.790;2022-08-01T18:57:45;24.90;99.90
38604;DHT22;24924;50.054;8.790;2022-08-01T19:00:12;25.60;98.10
38604;DHT22;24924;50.054;8.790;2022-08-01T19:05:07;24.60;97.30
